Pulau Tioman — 3EYO9 — position and weather

sailwx.info

Track history (hours):
 
Tides and Currents Weather Stations Pressure Air Temp Water Temp Dewpoint Dewpoint Depression Visibility Wind Speed Wind Dir Waves Ship Positions

Pulau Tioman

Last reported at 2017-May-24 05:46 UTC. Time now 2017-May-29 22:43 UTC.
Position N 34°24' E 135°04'.

Length 120 m; draft 6.1 m.

Type: Cargo ship. MMSI: 356613000.

Date/timePositionNaut miles runAvg speedWind from/ knotsBaromVisibWave heightAir tempDewpointWater temp
2017-May-24 05:46N 34°24' E 135°04'414.5
2017-May-24 05:28N 34°26' E 135°09'714.0
2017-May-24 05:00N 34°32' E 135°13'713.3
2017-May-24 04:30N 34°38' E 135°16'4 7.9
2017-May-24 04:00N 34°42' E 135°15'0 0.3
2017-May-24 03:25N 34°42' E 135°15'0 0.0
2017-May-24 02:19N 34°42' E 135°15'0 0.0
2017-May-24 01:43N 34°42' E 135°15'0 0.0
2017-May-24 01:25N 34°42' E 135°15'0 0.0
2017-May-24 00:55N 34°42' E 135°15'0 0.0
2017-May-24 00:25N 34°42' E 135°15'0 0.0
2017-May-23 23:43N 34°42' E 135°15'0 0.0
2017-May-23 23:25N 34°42' E 135°15'0 0.0
2017-May-23 22:55N 34°42' E 135°15'0 0.0
2017-May-23 22:25N 34°42' E 135°15'1 1.7
2017-May-23 22:00N 34°41' E 135°15'4 7.1
2017-May-23 21:30N 34°38' E 135°16'1 2.5
2017-May-23 20:59N 34°37' E 135°14'0 0.0
2017-May-23 20:23N 34°37' E 135°14'0 0.0
2017-May-23 19:59N 34°37' E 135°14'0 0.1
2017-May-23 19:22N 34°37' E 135°14'0 0.0
2017-May-23 18:59N 34°37' E 135°14'0 0.0
2017-May-23 18:29N 34°37' E 135°14'0 0.1
2017-May-23 17:59N 34°37' E 135°14'0 0.0
2017-May-23 17:29N 34°37' E 135°14'0 0.0
2017-May-23 16:58N 34°37' E 135°14'0 0.0
2017-May-23 16:28N 34°37' E 135°14'0 0.0
2017-May-23 15:59N 34°37' E 135°14'0 0.0
2017-May-23 15:29N 34°37' E 135°14'0 0.0
2017-May-23 14:59N 34°37' E 135°14'0 0.0
2017-May-23 14:29N 34°37' E 135°14'0 0.1
2017-May-23 13:29N 34°37' E 135°14'0 0.1
2017-May-23 12:58N 34°37' E 135°14'0 0.1
2017-May-23 12:28N 34°37' E 135°14'0 0.1
2017-May-23 11:52N 34°37' E 135°14'0 0.0
2017-May-23 11:29N 34°37' E 135°14'0 0.0
2017-May-23 10:58N 34°37' E 135°14'0 0.0
2017-May-23 10:30N 34°37' E 135°14'0 0.1
2017-May-23 10:00N 34°37' E 135°14'1 1.8
2017-May-23 09:30N 34°37' E 135°15'3 5.6
2017-May-23 09:00N 34°36' E 135°19'612.0
2017-May-23 08:30N 34°31' E 135°14'713.7
2017-May-23 08:00N 34°26' E 135°08'914.7
2017-May-23 07:24N 34°20' E 135°00'714.5
2017-May-23 06:54N 34°13' E 134°59'513.7
2017-May-23 06:30N 34°08' E 134°59'24511.1
2017-May-22 08:24N 35°14' E 139°46'512.8
2017-May-22 07:59N 35°19' E 139°43'511.2
2017-May-22 07:30N 35°24' E 139°42'3 6.9
2017-May-22 07:00N 35°27' E 139°41'0 0.3
2017-May-22 06:25N 35°27' E 139°41'0 0.0
2017-May-22 05:55N 35°27' E 139°41'0 0.0
2017-May-22 05:25N 35°27' E 139°41'0 0.0
2017-May-22 04:55N 35°27' E 139°41'0 0.0
2017-May-22 04:25N 35°27' E 139°41'0 0.0
2017-May-22 03:55N 35°27' E 139°41'0 0.0
2017-May-22 03:25N 35°27' E 139°41'0 0.0
2017-May-22 02:55N 35°27' E 139°41'0 0.0
2017-May-22 02:25N 35°27' E 139°41'0 0.0
2017-May-22 01:55N 35°27' E 139°41'0 0.0
2017-May-22 01:25N 35°27' E 139°41'0 0.0
2017-May-22 00:55N 35°27' E 139°41'0 0.0
2017-May-22 00:25N 35°27' E 139°41'0 0.0
2017-May-21 23:55N 35°27' E 139°41'0 0.0
2017-May-21 23:25N 35°27' E 139°41'0 0.0
2017-May-21 22:55N 35°27' E 139°41'0 0.0
2017-May-21 22:25N 35°27' E 139°41'0 1.0
2017-May-21 22:00N 35°27' E 139°42'1 2.1
2017-May-21 21:28N 35°26' E 139°43'0 0.1
2017-May-21 20:58N 35°26' E 139°43'0 0.0
2017-May-21 20:28N 35°26' E 139°43'0 0.1
2017-May-21 19:58N 35°26' E 139°43'0 0.0
2017-May-21 19:28N 35°26' E 139°43'0 0.1
2017-May-21 18:58N 35°26' E 139°43'0 0.0
2017-May-21 18:28N 35°26' E 139°43'0 0.0
2017-May-21 17:58N 35°26' E 139°43'0 0.0
2017-May-21 17:28N 35°26' E 139°43'0 0.0
2017-May-21 16:58N 35°26' E 139°43'0 0.0
2017-May-21 16:28N 35°26' E 139°43'0 0.0
2017-May-21 15:58N 35°26' E 139°43'0 0.0
2017-May-21 15:28N 35°26' E 139°43'0 0.0
2017-May-21 14:58N 35°26' E 139°43'0 0.0
2017-May-21 13:58N 35°26' E 139°43'0 0.0
2017-May-21 13:28N 35°26' E 139°43'0 0.0
2017-May-21 12:58N 35°26' E 139°43'0 0.0
2017-May-21 12:28N 35°26' E 139°43'0 0.0
2017-May-21 11:58N 35°26' E 139°43'0 0.0
2017-May-21 11:28N 35°26' E 139°43'0 0.0
2017-May-21 10:58N 35°26' E 139°43'0 0.0
2017-May-21 10:28N 35°26' E 139°43'0 0.0
2017-May-21 09:58N 35°26' E 139°43'0 0.0
2017-May-21 09:28N 35°26' E 139°43'0 0.0
2017-May-21 08:58N 35°26' E 139°43'0 0.0
2017-May-21 08:28N 35°26' E 139°43'0 0.0
2017-May-21 07:58N 35°26' E 139°43'0 0.0
2017-May-21 07:28N 35°26' E 139°43'0 0.0
2017-May-21 06:52N 35°26' E 139°43'0 0.0
2017-May-21 06:28N 35°26' E 139°43'0 0.0
2017-May-21 05:58N 35°26' E 139°43'0 0.0
2017-May-21 05:28N 35°26' E 139°43'0 0.1
2017-May-21 04:58N 35°26' E 139°43'0 0.0
2017-May-21 04:28N 35°26' E 139°43'0 0.0
2017-May-21 03:58N 35°26' E 139°43'0 0.0
2017-May-21 03:28N 35°26' E 139°43'0 0.0
2017-May-21 02:58N 35°26' E 139°43'0 0.0
2017-May-21 02:28N 35°26' E 139°43'0 0.0
2017-May-21 01:58N 35°26' E 139°43'0 0.0
2017-May-21 01:28N 35°26' E 139°43'0 0.0
2017-May-21 00:58N 35°26' E 139°43'0 0.0
2017-May-21 00:28N 35°26' E 139°43'0 0.0
2017-May-20 23:58N 35°26' E 139°43'0 0.0
2017-May-20 23:28N 35°26' E 139°43'0 0.1
2017-May-20 22:58N 35°26' E 139°43'0 0.1
2017-May-20 22:28N 35°26' E 139°43'0 0.0
2017-May-20 21:58N 35°26' E 139°43'0 0.0
2017-May-20 21:28N 35°26' E 139°43'0 0.0
2017-May-20 20:58N 35°26' E 139°43'0 0.0
2017-May-20 20:28N 35°26' E 139°43'0 0.0
2017-May-20 19:58N 35°26' E 139°43'0 0.0
2017-May-20 19:28N 35°26' E 139°43'0 0.0
2017-May-20 18:58N 35°26' E 139°43'0 0.1
2017-May-20 18:22N 35°26' E 139°43'0 0.1
2017-May-20 17:58N 35°26' E 139°43'0 0.0
2017-May-20 17:28N 35°26' E 139°43'0 0.0
2017-May-20 16:58N 35°26' E 139°43'0 0.0
2017-May-20 16:28N 35°26' E 139°43'0 0.0
2017-May-20 15:58N 35°26' E 139°43'0 0.0
2017-May-20 15:28N 35°26' E 139°43'0 0.0
2017-May-20 14:58N 35°26' E 139°43'0 0.0
2017-May-20 13:58N 35°26' E 139°43'0 0.0
2017-May-20 13:28N 35°26' E 139°43'0 0.0
2017-May-20 12:58N 35°26' E 139°43'0 0.0
2017-May-20 12:28N 35°26' E 139°43'1 3.2
2017-May-20 12:00N 35°26' E 139°45'3 5.8
2017-May-20 11:29N 35°25' E 139°48'5 7.7
2017-May-20 10:52N 35°22' E 139°53'3 0.2
2017-May-19 21:53N 35°23' E 139°50'3 5.9
2017-May-19 21:22N 35°23' E 139°46'2 6.0
2017-May-19 21:00N 35°21' E 139°45'5 8.9
2017-May-19 20:30N 35°17' E 139°46'  
Track history (hours):
 
Tides and Currents Weather Stations Pressure Air Temp Water Temp Dewpoint Dewpoint Depression Visibility Wind Speed Wind Dir Waves Ship Positions

Pulau Tioman

Last reported at 2017-May-24 05:46 UTC. Time now 2017-May-29 22:43 UTC.
Position N 34°24' E 135°04'.

Length 120 m; draft 6.1 m.

Type: Cargo ship. MMSI: 356613000.

Date/timePositionNaut miles runAvg speedWind from/ knotsBaromVisibWave heightAir tempDewpointWater temp
2017-May-24 05:46N 34°24' E 135°04'414.5
2017-May-24 05:28N 34°26' E 135°09'714.0
2017-May-24 05:00N 34°32' E 135°13'713.3
2017-May-24 04:30N 34°38' E 135°16'4 7.9
2017-May-24 04:00N 34°42' E 135°15'0 0.3
2017-May-24 03:25N 34°42' E 135°15'0 0.0
2017-May-24 02:19N 34°42' E 135°15'0 0.0
2017-May-24 01:43N 34°42' E 135°15'0 0.0
2017-May-24 01:25N 34°42' E 135°15'0 0.0
2017-May-24 00:55N 34°42' E 135°15'0 0.0
2017-May-24 00:25N 34°42' E 135°15'0 0.0
2017-May-23 23:43N 34°42' E 135°15'0 0.0
2017-May-23 23:25N 34°42' E 135°15'0 0.0
2017-May-23 22:55N 34°42' E 135°15'0 0.0
2017-May-23 22:25N 34°42' E 135°15'1 1.7
2017-May-23 22:00N 34°41' E 135°15'4 7.1
2017-May-23 21:30N 34°38' E 135°16'1 2.5
2017-May-23 20:59N 34°37' E 135°14'0 0.0
2017-May-23 20:23N 34°37' E 135°14'0 0.0
2017-May-23 19:59N 34°37' E 135°14'0 0.1
2017-May-23 19:22N 34°37' E 135°14'0 0.0
2017-May-23 18:59N 34°37' E 135°14'0 0.0
2017-May-23 18:29N 34°37' E 135°14'0 0.1
2017-May-23 17:59N 34°37' E 135°14'0 0.0
2017-May-23 17:29N 34°37' E 135°14'0 0.0
2017-May-23 16:58N 34°37' E 135°14'0 0.0
2017-May-23 16:28N 34°37' E 135°14'0 0.0
2017-May-23 15:59N 34°37' E 135°14'0 0.0
2017-May-23 15:29N 34°37' E 135°14'0 0.0
2017-May-23 14:59N 34°37' E 135°14'0 0.0
2017-May-23 14:29N 34°37' E 135°14'0 0.1
2017-May-23 13:29N 34°37' E 135°14'0 0.1
2017-May-23 12:58N 34°37' E 135°14'0 0.1
2017-May-23 12:28N 34°37' E 135°14'0 0.1
2017-May-23 11:52N 34°37' E 135°14'0 0.0
2017-May-23 11:29N 34°37' E 135°14'0 0.0
2017-May-23 10:58N 34°37' E 135°14'0 0.0
2017-May-23 10:30N 34°37' E 135°14'0 0.1
2017-May-23 10:00N 34°37' E 135°14'1 1.8
2017-May-23 09:30N 34°37' E 135°15'3 5.6
2017-May-23 09:00N 34°36' E 135°19'612.0
2017-May-23 08:30N 34°31' E 135°14'713.7
2017-May-23 08:00N 34°26' E 135°08'914.7
2017-May-23 07:24N 34°20' E 135°00'714.5
2017-May-23 06:54N 34°13' E 134°59'513.7
2017-May-23 06:30N 34°08' E 134°59'24511.1
2017-May-22 08:24N 35°14' E 139°46'512.8
2017-May-22 07:59N 35°19' E 139°43'511.2
2017-May-22 07:30N 35°24' E 139°42'3 6.9
2017-May-22 07:00N 35°27' E 139°41'0 0.3
2017-May-22 06:25N 35°27' E 139°41'0 0.0
2017-May-22 05:55N 35°27' E 139°41'0 0.0
2017-May-22 05:25N 35°27' E 139°41'0 0.0
2017-May-22 04:55N 35°27' E 139°41'0 0.0
2017-May-22 04:25N 35°27' E 139°41'0 0.0
2017-May-22 03:55N 35°27' E 139°41'0 0.0
2017-May-22 03:25N 35°27' E 139°41'0 0.0
2017-May-22 02:55N 35°27' E 139°41'0 0.0
2017-May-22 02:25N 35°27' E 139°41'0 0.0
2017-May-22 01:55N 35°27' E 139°41'0 0.0
2017-May-22 01:25N 35°27' E 139°41'0 0.0
2017-May-22 00:55N 35°27' E 139°41'0 0.0
2017-May-22 00:25N 35°27' E 139°41'0 0.0
2017-May-21 23:55N 35°27' E 139°41'0 0.0
2017-May-21 23:25N 35°27' E 139°41'0 0.0
2017-May-21 22:55N 35°27' E 139°41'0 0.0
2017-May-21 22:25N 35°27' E 139°41'0 1.0
2017-May-21 22:00N 35°27' E 139°42'1 2.1
2017-May-21 21:28N 35°26' E 139°43'0 0.1
2017-May-21 20:58N 35°26' E 139°43'0 0.0
2017-May-21 20:28N 35°26' E 139°43'0 0.1
2017-May-21 19:58N 35°26' E 139°43'0 0.0
2017-May-21 19:28N 35°26' E 139°43'0 0.1
2017-May-21 18:58N 35°26' E 139°43'0 0.0
2017-May-21 18:28N 35°26' E 139°43'0 0.0
2017-May-21 17:58N 35°26' E 139°43'0 0.0
2017-May-21 17:28N 35°26' E 139°43'0 0.0
2017-May-21 16:58N 35°26' E 139°43'0 0.0
2017-May-21 16:28N 35°26' E 139°43'0 0.0
2017-May-21 15:58N 35°26' E 139°43'0 0.0
2017-May-21 15:28N 35°26' E 139°43'0 0.0
2017-May-21 14:58N 35°26' E 139°43'0 0.0
2017-May-21 13:58N 35°26' E 139°43'0 0.0
2017-May-21 13:28N 35°26' E 139°43'0 0.0
2017-May-21 12:58N 35°26' E 139°43'0 0.0
2017-May-21 12:28N 35°26' E 139°43'0 0.0
2017-May-21 11:58N 35°26' E 139°43'0 0.0
2017-May-21 11:28N 35°26' E 139°43'0 0.0
2017-May-21 10:58N 35°26' E 139°43'0 0.0
2017-May-21 10:28N 35°26' E 139°43'0 0.0
2017-May-21 09:58N 35°26' E 139°43'0 0.0
2017-May-21 09:28N 35°26' E 139°43'0 0.0
2017-May-21 08:58N 35°26' E 139°43'0 0.0
2017-May-21 08:28N 35°26' E 139°43'0 0.0
2017-May-21 07:58N 35°26' E 139°43'0 0.0
2017-May-21 07:28N 35°26' E 139°43'0 0.0
2017-May-21 06:52N 35°26' E 139°43'0 0.0
2017-May-21 06:28N 35°26' E 139°43'0 0.0
2017-May-21 05:58N 35°26' E 139°43'0 0.0
2017-May-21 05:28N 35°26' E 139°43'0 0.1
2017-May-21 04:58N 35°26' E 139°43'0 0.0
2017-May-21 04:28N 35°26' E 139°43'0 0.0
2017-May-21 03:58N 35°26' E 139°43'0 0.0
2017-May-21 03:28N 35°26' E 139°43'0 0.0
2017-May-21 02:58N 35°26' E 139°43'0 0.0
2017-May-21 02:28N 35°26' E 139°43'0 0.0
2017-May-21 01:58N 35°26' E 139°43'0 0.0
2017-May-21 01:28N 35°26' E 139°43'0 0.0
2017-May-21 00:58N 35°26' E 139°43'0 0.0
2017-May-21 00:28N 35°26' E 139°43'0 0.0
2017-May-20 23:58N 35°26' E 139°43'0 0.0
2017-May-20 23:28N 35°26' E 139°43'0 0.1
2017-May-20 22:58N 35°26' E 139°43'0 0.1
2017-May-20 22:28N 35°26' E 139°43'0 0.0
2017-May-20 21:58N 35°26' E 139°43'0 0.0
2017-May-20 21:28N 35°26' E 139°43'0 0.0
2017-May-20 20:58N 35°26' E 139°43'0 0.0
2017-May-20 20:28N 35°26' E 139°43'0 0.0
2017-May-20 19:58N 35°26' E 139°43'0 0.0
2017-May-20 19:28N 35°26' E 139°43'0 0.0
2017-May-20 18:58N 35°26' E 139°43'0 0.1
2017-May-20 18:22N 35°26' E 139°43'0 0.1
2017-May-20 17:58N 35°26' E 139°43'0 0.0
2017-May-20 17:28N 35°26' E 139°43'0 0.0
2017-May-20 16:58N 35°26' E 139°43'0 0.0
2017-May-20 16:28N 35°26' E 139°43'0 0.0
2017-May-20 15:58N 35°26' E 139°43'0 0.0
2017-May-20 15:28N 35°26' E 139°43'0 0.0
2017-May-20 14:58N 35°26' E 139°43'0 0.0
2017-May-20 13:58N 35°26' E 139°43'0 0.0
2017-May-20 13:28N 35°26' E 139°43'0 0.0
2017-May-20 12:58N 35°26' E 139°43'0 0.0
2017-May-20 12:28N 35°26' E 139°43'1 3.2
2017-May-20 12:00N 35°26' E 139°45'3 5.8
2017-May-20 11:29N 35°25' E 139°48'5 7.7
2017-May-20 10:52N 35°22' E 139°53'3 0.2
2017-May-19 21:53N 35°23' E 139°50'3 5.9
2017-May-19 21:22N 35°23' E 139°46'2 6.0
2017-May-19 21:00N 35°21' E 139°45'5 8.9
2017-May-19 20:30N 35°17' E 139°46'  

Dump ship's entire track history